sensor_id;sensor_type;location;lat;lon;timestamp;P1;durP1;ratioP1;P2;durP2;ratioP2
10463;SDS011;5279;42.048;24.638;2023-10-09T00:00:32;7.33;;;1.50;;
10463;SDS011;5279;42.048;24.638;2023-10-09T00:03:16;4.63;;;1.80;;
10463;SDS011;5279;42.048;24.638;2023-10-09T00:05:44;5.50;;;1.70;;
10463;SDS011;5279;42.048;24.638;2023-10-09T00:08:12;5.40;;;1.70;;
10463;SDS011;5279;42.048;24.638;2023-10-09T00:10:44;10.20;;;2.40;;
10463;SDS011;5279;42.048;24.638;2023-10-09T00:13:16;14.50;;;2.30;;
10463;SDS011;5279;42.048;24.638;2023-10-09T00:15:44;9.20;;;2.20;;
10463;SDS011;5279;42.048;24.638;2023-10-09T00:18:17;9.20;;;1.80;;
10463;SDS011;5279;42.048;24.638;2023-10-09T00:20:48;6.23;;;1.97;;
10463;SDS011;5279;42.048;24.638;2023-10-09T00:23:20;3.70;;;1.73;;
10463;SDS011;5279;42.048;24.638;2023-10-09T00:25:50;4.30;;;1.53;;
10463;SDS011;5279;42.048;24.638;2023-10-09T00:28:35;9.83;;;2.30;;
10463;SDS011;5279;42.048;24.638;2023-10-09T00:31:03;6.40;;;1.77;;
10463;SDS011;5279;42.048;24.638;2023-10-09T00:33:33;6.43;;;1.97;;
10463;SDS011;5279;42.048;24.638;2023-10-09T00:36:03;6.23;;;2.20;;
10463;SDS011;5279;42.048;24.638;2023-10-09T00:38:35;6.37;;;1.93;;
10463;SDS011;5279;42.048;24.638;2023-10-09T00:41:11;5.53;;;1.60;;
10463;SDS011;5279;42.048;24.638;2023-10-09T00:43:46;8.03;;;2.30;;
10463;SDS011;5279;42.048;24.638;2023-10-09T00:46:15;5.03;;;1.57;;
10463;SDS011;5279;42.048;24.638;2023-10-09T00:48:51;14.47;;;2.03;;
10463;SDS011;5279;42.048;24.638;2023-10-09T00:51:21;9.97;;;2.13;;
10463;SDS011;5279;42.048;24.638;2023-10-09T00:53:50;9.50;;;2.03;;
10463;SDS011;5279;42.048;24.638;2023-10-09T00:56:18;8.50;;;1.60;;
10463;SDS011;5279;42.048;24.638;2023-10-09T00:58:56;11.03;;;2.43;;
10463;SDS011;5279;42.048;24.638;2023-10-09T01:01:34;5.23;;;1.80;;
10463;SDS011;5279;42.048;24.638;2023-10-09T01:04:02;5.30;;;1.90;;
10463;SDS011;5279;42.048;24.638;2023-10-09T01:06:35;8.60;;;2.13;;
10463;SDS011;5279;42.048;24.638;2023-10-09T01:09:08;5.03;;;1.90;;
10463;SDS011;5279;42.048;24.638;2023-10-09T01:11:37;7.43;;;2.40;;
10463;SDS011;5279;42.048;24.638;2023-10-09T01:14:15;10.03;;;1.90;;
10463;SDS011;5279;42.048;24.638;2023-10-09T01:16:46;10.33;;;2.17;;
10463;SDS011;5279;42.048;24.638;2023-10-09T01:19:14;11.23;;;2.30;;
10463;SDS011;5279;42.048;24.638;2023-10-09T01:21:49;6.77;;;2.73;;
10463;SDS011;5279;42.048;24.638;2023-10-09T01:24:17;9.93;;;2.73;;
10463;SDS011;5279;42.048;24.638;2023-10-09T01:26:46;11.10;;;2.67;;
10463;SDS011;5279;42.048;24.638;2023-10-09T01:29:15;7.47;;;2.63;;
10463;SDS011;5279;42.048;24.638;2023-10-09T01:31:44;9.87;;;2.80;;
10463;SDS011;5279;42.048;24.638;2023-10-09T01:34:17;10.93;;;2.63;;
10463;SDS011;5279;42.048;24.638;2023-10-09T01:36:49;3.77;;;2.00;;
10463;SDS011;5279;42.048;24.638;2023-10-09T01:39:22;15.03;;;2.90;;
10463;SDS011;5279;42.048;24.638;2023-10-09T01:41:51;9.97;;;2.87;;
10463;SDS011;5279;42.048;24.638;2023-10-09T01:44:24;7.63;;;2.63;;
10463;SDS011;5279;42.048;24.638;2023-10-09T01:46:53;12.00;;;2.60;;
10463;SDS011;5279;42.048;24.638;2023-10-09T01:49:23;8.70;;;2.50;;
10463;SDS011;5279;42.048;24.638;2023-10-09T01:51:56;11.63;;;2.50;;
10463;SDS011;5279;42.048;24.638;2023-10-09T01:54:30;6.27;;;2.50;;
10463;SDS011;5279;42.048;24.638;2023-10-09T01:57:01;5.73;;;1.90;;
10463;SDS011;5279;42.048;24.638;2023-10-09T01:59:31;4.57;;;2.30;;
10463;SDS011;5279;42.048;24.638;2023-10-09T02:02:03;9.77;;;2.47;;
10463;SDS011;5279;42.048;24.638;2023-10-09T02:04:39;6.63;;;2.37;;
10463;SDS011;5279;42.048;24.638;2023-10-09T02:07:06;8.23;;;2.10;;
10463;SDS011;5279;42.048;24.638;2023-10-09T02:09:36;3.63;;;2.13;;
10463;SDS011;5279;42.048;24.638;2023-10-09T02:12:11;8.07;;;2.13;;
10463;SDS011;5279;42.048;24.638;2023-10-09T02:14:38;6.10;;;1.90;;
10463;SDS011;5279;42.048;24.638;2023-10-09T02:17:07;7.57;;;2.50;;
10463;SDS011;5279;42.048;24.638;2023-10-09T02:19:43;7.73;;;2.37;;
10463;SDS011;5279;42.048;24.638;2023-10-09T02:22:13;4.97;;;2.00;;
10463;SDS011;5279;42.048;24.638;2023-10-09T02:24:43;7.07;;;2.50;;
10463;SDS011;5279;42.048;24.638;2023-10-09T02:27:23;7.23;;;2.00;;
10463;SDS011;5279;42.048;24.638;2023-10-09T02:30:08;8.00;;;2.07;;
10463;SDS011;5279;42.048;24.638;2023-10-09T02:36:06;6.73;;;2.00;;
10463;SDS011;5279;42.048;24.638;2023-10-09T02:38:34;4.03;;;2.07;;
10463;SDS011;5279;42.048;24.638;2023-10-09T02:41:07;5.87;;;1.70;;
10463;SDS011;5279;42.048;24.638;2023-10-09T02:43:45;4.43;;;2.27;;
10463;SDS011;5279;42.048;24.638;2023-10-09T02:46:15;5.17;;;2.63;;
10463;SDS011;5279;42.048;24.638;2023-10-09T02:48:44;7.13;;;2.37;;
10463;SDS011;5279;42.048;24.638;2023-10-09T02:51:16;12.00;;;1.87;;
10463;SDS011;5279;42.048;24.638;2023-10-09T02:53:57;7.60;;;1.93;;
10463;SDS011;5279;42.048;24.638;2023-10-09T02:56:34;8.50;;;2.13;;
10463;SDS011;5279;42.048;24.638;2023-10-09T02:59:08;8.57;;;2.30;;
10463;SDS011;5279;42.048;24.638;2023-10-09T03:01:37;9.77;;;1.80;;
10463;SDS011;5279;42.048;24.638;2023-10-09T03:04:06;11.07;;;2.00;;
10463;SDS011;5279;42.048;24.638;2023-10-09T03:06:36;12.67;;;1.77;;
10463;SDS011;5279;42.048;24.638;2023-10-09T03:09:08;6.00;;;1.70;;
10463;SDS011;5279;42.048;24.638;2023-10-09T03:11:45;12.87;;;2.10;;
10463;SDS011;5279;42.048;24.638;2023-10-09T03:14:13;9.50;;;1.77;;
10463;SDS011;5279;42.048;24.638;2023-10-09T03:16:41;12.90;;;1.60;;
10463;SDS011;5279;42.048;24.638;2023-10-09T03:19:08;7.77;;;2.10;;
10463;SDS011;5279;42.048;24.638;2023-10-09T03:21:38;8.33;;;1.80;;
10463;SDS011;5279;42.048;24.638;2023-10-09T03:24:06;15.50;;;2.83;;
10463;SDS011;5279;42.048;24.638;2023-10-09T03:26:34;7.70;;;1.63;;
10463;SDS011;5279;42.048;24.638;2023-10-09T03:29:02;5.17;;;1.27;;
10463;SDS011;5279;42.048;24.638;2023-10-09T03:31:32;15.70;;;2.00;;
10463;SDS011;5279;42.048;24.638;2023-10-09T03:33:59;11.27;;;1.77;;
10463;SDS011;5279;42.048;24.638;2023-10-09T03:36:27;10.50;;;1.50;;
10463;SDS011;5279;42.048;24.638;2023-10-09T03:38:56;13.50;;;2.10;;
10463;SDS011;5279;42.048;24.638;2023-10-09T03:41:23;11.20;;;1.43;;
10463;SDS011;5279;42.048;24.638;2023-10-09T03:43:51;10.40;;;1.20;;
10463;SDS011;5279;42.048;24.638;2023-10-09T03:46:21;5.90;;;1.23;;
10463;SDS011;5279;42.048;24.638;2023-10-09T03:48:51;6.33;;;1.60;;
10463;SDS011;5279;42.048;24.638;2023-10-09T03:51:21;5.53;;;1.20;;
10463;SDS011;5279;42.048;24.638;2023-10-09T03:53:49;6.70;;;1.13;;
10463;SDS011;5279;42.048;24.638;2023-10-09T03:56:17;7.20;;;1.33;;
10463;SDS011;5279;42.048;24.638;2023-10-09T03:58:46;10.33;;;1.17;;
10463;SDS011;5279;42.048;24.638;2023-10-09T04:01:16;7.23;;;1.70;;
10463;SDS011;5279;42.048;24.638;2023-10-09T04:03:49;10.03;;;1.27;;
10463;SDS011;5279;42.048;24.638;2023-10-09T04:06:20;6.83;;;1.20;;
10463;SDS011;5279;42.048;24.638;2023-10-09T04:08:47;4.50;;;1.00;;
10463;SDS011;5279;42.048;24.638;2023-10-09T04:11:16;6.47;;;1.40;;
10463;SDS011;5279;42.048;24.638;2023-10-09T04:13:48;11.27;;;1.27;;
10463;SDS011;5279;42.048;24.638;2023-10-09T04:16:17;4.60;;;1.10;;
10463;SDS011;5279;42.048;24.638;2023-10-09T04:19:02;6.87;;;1.17;;
10463;SDS011;5279;42.048;24.638;2023-10-09T04:21:33;11.30;;;1.03;;
10463;SDS011;5279;42.048;24.638;2023-10-09T04:24:00;5.90;;;1.17;;
10463;SDS011;5279;42.048;24.638;2023-10-09T04:27:03;10.53;;;1.13;;
10463;SDS011;5279;42.048;24.638;2023-10-09T04:30:06;6.20;;;1.07;;
10463;SDS011;5279;42.048;24.638;2023-10-09T04:32:40;5.67;;;1.27;;
10463;SDS011;5279;42.048;24.638;2023-10-09T04:35:11;7.27;;;1.63;;
10463;SDS011;5279;42.048;24.638;2023-10-09T04:37:48;5.93;;;1.37;;
10463;SDS011;5279;42.048;24.638;2023-10-09T04:40:25;7.10;;;1.40;;
10463;SDS011;5279;42.048;24.638;2023-10-09T04:43:06;8.77;;;1.37;;
10463;SDS011;5279;42.048;24.638;2023-10-09T04:45:35;6.67;;;1.30;;
10463;SDS011;5279;42.048;24.638;2023-10-09T04:48:20;9.93;;;1.40;;
10463;SDS011;5279;42.048;24.638;2023-10-09T04:51:04;12.60;;;1.60;;
10463;SDS011;5279;42.048;24.638;2023-10-09T04:53:59;10.97;;;1.40;;
10463;SDS011;5279;42.048;24.638;2023-10-09T04:56:38;7.17;;;1.43;;
10463;SDS011;5279;42.048;24.638;2023-10-09T04:59:18;6.70;;;1.33;;
10463;SDS011;5279;42.048;24.638;2023-10-09T05:01:50;9.60;;;1.20;;
10463;SDS011;5279;42.048;24.638;2023-10-09T05:04:24;7.03;;;1.17;;
10463;SDS011;5279;42.048;24.638;2023-10-09T05:07:06;5.47;;;1.40;;
10463;SDS011;5279;42.048;24.638;2023-10-09T05:10:11;5.83;;;1.53;;
10463;SDS011;5279;42.048;24.638;2023-10-09T05:12:41;8.03;;;1.20;;
10463;SDS011;5279;42.048;24.638;2023-10-09T05:15:13;13.70;;;2.03;;
10463;SDS011;5279;42.048;24.638;2023-10-09T05:17:40;9.30;;;1.40;;
10463;SDS011;5279;42.048;24.638;2023-10-09T05:20:17;8.67;;;1.20;;
10463;SDS011;5279;42.048;24.638;2023-10-09T05:23:05;8.13;;;1.70;;
10463;SDS011;5279;42.048;24.638;2023-10-09T05:25:46;10.27;;;1.20;;
10463;SDS011;5279;42.048;24.638;2023-10-09T05:28:24;3.13;;;1.57;;
10463;SDS011;5279;42.048;24.638;2023-10-09T05:30:50;8.23;;;1.73;;
10463;SDS011;5279;42.048;24.638;2023-10-09T05:33:28;10.87;;;1.77;;
10463;SDS011;5279;42.048;24.638;2023-10-09T05:35:54;5.33;;;1.70;;
10463;SDS011;5279;42.048;24.638;2023-10-09T05:38:42;3.37;;;1.27;;
10463;SDS011;5279;42.048;24.638;2023-10-09T05:41:23;2.20;;;1.20;;
10463;SDS011;5279;42.048;24.638;2023-10-09T05:44:08;3.73;;;1.47;;
10463;SDS011;5279;42.048;24.638;2023-10-09T05:46:52;5.67;;;1.30;;
10463;SDS011;5279;42.048;24.638;2023-10-09T05:49:47;6.60;;;1.57;;
10463;SDS011;5279;42.048;24.638;2023-10-09T05:52:32;6.70;;;1.57;;
10463;SDS011;5279;42.048;24.638;2023-10-09T05:55:20;6.23;;;1.50;;
10463;SDS011;5279;42.048;24.638;2023-10-09T05:58:01;7.07;;;1.60;;
10463;SDS011;5279;42.048;24.638;2023-10-09T06:00:49;7.63;;;1.57;;
10463;SDS011;5279;42.048;24.638;2023-10-09T06:03:53;7.77;;;1.63;;
10463;SDS011;5279;42.048;24.638;2023-10-09T06:06:19;5.40;;;1.60;;
10463;SDS011;5279;42.048;24.638;2023-10-09T06:08:59;6.60;;;1.57;;
10463;SDS011;5279;42.048;24.638;2023-10-09T06:11:51;9.30;;;1.17;;
10463;SDS011;5279;42.048;24.638;2023-10-09T06:14:41;3.27;;;1.27;;
10463;SDS011;5279;42.048;24.638;2023-10-09T06:17:35;7.53;;;1.40;;
10463;SDS011;5279;42.048;24.638;2023-10-09T06:20:15;4.97;;;1.80;;
10463;SDS011;5279;42.048;24.638;2023-10-09T06:22:59;4.80;;;1.40;;
10463;SDS011;5279;42.048;24.638;2023-10-09T06:25:41;5.83;;;1.80;;
10463;SDS011;5279;42.048;24.638;2023-10-09T06:28:17;2.27;;;1.17;;
10463;SDS011;5279;42.048;24.638;2023-10-09T06:30:58;9.27;;;1.40;;
10463;SDS011;5279;42.048;24.638;2023-10-09T06:33:45;12.60;;;1.97;;
10463;SDS011;5279;42.048;24.638;2023-10-09T06:36:33;10.47;;;1.80;;
10463;SDS011;5279;42.048;24.638;2023-10-09T06:38:59;5.13;;;2.20;;
10463;SDS011;5279;42.048;24.638;2023-10-09T06:41:55;11.37;;;1.87;;
10463;SDS011;5279;42.048;24.638;2023-10-09T06:44:36;3.40;;;2.27;;
10463;SDS011;5279;42.048;24.638;2023-10-09T06:47:17;5.13;;;2.20;;
10463;SDS011;5279;42.048;24.638;2023-10-09T06:49:44;9.83;;;2.30;;
10463;SDS011;5279;42.048;24.638;2023-10-09T06:52:31;9.00;;;2.40;;
10463;SDS011;5279;42.048;24.638;2023-10-09T06:55:12;8.70;;;2.47;;
10463;SDS011;5279;42.048;24.638;2023-10-09T06:57:57;9.43;;;2.60;;
10463;SDS011;5279;42.048;24.638;2023-10-09T07:00:27;3.27;;;2.17;;
10463;SDS011;5279;42.048;24.638;2023-10-09T07:03:23;7.03;;;2.40;;
10463;SDS011;5279;42.048;24.638;2023-10-09T07:06:02;5.50;;;2.03;;
10463;SDS011;5279;42.048;24.638;2023-10-09T07:08:34;6.77;;;2.00;;
10463;SDS011;5279;42.048;24.638;2023-10-09T07:11:03;6.90;;;2.63;;
10463;SDS011;5279;42.048;24.638;2023-10-09T07:14:07;7.13;;;2.17;;
10463;SDS011;5279;42.048;24.638;2023-10-09T07:16:56;3.90;;;2.47;;
10463;SDS011;5279;42.048;24.638;2023-10-09T07:19:22;5.70;;;2.50;;
10463;SDS011;5279;42.048;24.638;2023-10-09T07:22:00;9.80;;;3.13;;
10463;SDS011;5279;42.048;24.638;2023-10-09T07:24:28;6.43;;;2.60;;
10463;SDS011;5279;42.048;24.638;2023-10-09T07:27:03;3.67;;;2.03;;
10463;SDS011;5279;42.048;24.638;2023-10-09T07:29:34;10.57;;;2.83;;
10463;SDS011;5279;42.048;24.638;2023-10-09T07:32:14;5.03;;;2.30;;
10463;SDS011;5279;42.048;24.638;2023-10-09T07:34:45;8.47;;;2.10;;
10463;SDS011;5279;42.048;24.638;2023-10-09T07:37:25;5.70;;;2.10;;
10463;SDS011;5279;42.048;24.638;2023-10-09T07:39:56;4.87;;;2.17;;
10463;SDS011;5279;42.048;24.638;2023-10-09T07:42:23;5.33;;;2.30;;
10463;SDS011;5279;42.048;24.638;2023-10-09T07:45:09;6.60;;;2.60;;
10463;SDS011;5279;42.048;24.638;2023-10-09T07:47:59;5.70;;;2.47;;
10463;SDS011;5279;42.048;24.638;2023-10-09T07:50:34;3.30;;;1.97;;
10463;SDS011;5279;42.048;24.638;2023-10-09T07:53:06;5.70;;;2.00;;
10463;SDS011;5279;42.048;24.638;2023-10-09T07:55:43;7.07;;;2.50;;
10463;SDS011;5279;42.048;24.638;2023-10-09T07:58:19;5.90;;;2.47;;
10463;SDS011;5279;42.048;24.638;2023-10-09T08:00:50;6.87;;;2.60;;
10463;SDS011;5279;42.048;24.638;2023-10-09T08:03:48;6.47;;;2.13;;
10463;SDS011;5279;42.048;24.638;2023-10-09T08:06:22;4.93;;;2.27;;
10463;SDS011;5279;42.048;24.638;2023-10-09T08:09:04;8.37;;;2.50;;
10463;SDS011;5279;42.048;24.638;2023-10-09T08:11:48;5.10;;;2.60;;
10463;SDS011;5279;42.048;24.638;2023-10-09T08:14:33;4.57;;;1.63;;
10463;SDS011;5279;42.048;24.638;2023-10-09T08:28:37;5.43;;;2.50;;
10463;SDS011;5279;42.048;24.638;2023-10-09T08:31:08;5.33;;;2.47;;
10463;SDS011;5279;42.048;24.638;2023-10-09T08:33:44;6.57;;;2.53;;
10463;SDS011;5279;42.048;24.638;2023-10-09T08:36:21;6.97;;;2.40;;
10463;SDS011;5279;42.048;24.638;2023-10-09T08:38:48;7.97;;;2.53;;
10463;SDS011;5279;42.048;24.638;2023-10-09T08:41:14;8.47;;;2.20;;
10463;SDS011;5279;42.048;24.638;2023-10-09T08:43:49;7.70;;;2.40;;
10463;SDS011;5279;42.048;24.638;2023-10-09T08:46:20;7.60;;;2.10;;
10463;SDS011;5279;42.048;24.638;2023-10-09T08:48:48;6.80;;;2.17;;
10463;SDS011;5279;42.048;24.638;2023-10-09T08:51:17;3.00;;;2.00;;
10463;SDS011;5279;42.048;24.638;2023-10-09T08:53:45;10.47;;;2.17;;
10463;SDS011;5279;42.048;24.638;2023-10-09T08:56:12;5.60;;;1.83;;
10463;SDS011;5279;42.048;24.638;2023-10-09T08:58:47;6.73;;;1.70;;
10463;SDS011;5279;42.048;24.638;2023-10-09T09:01:16;8.50;;;1.77;;
10463;SDS011;5279;42.048;24.638;2023-10-09T09:03:46;3.73;;;1.93;;
10463;SDS011;5279;42.048;24.638;2023-10-09T09:06:13;2.72;;;1.63;;
10463;SDS011;5279;42.048;24.638;2023-10-09T09:08:39;5.30;;;1.80;;
10463;SDS011;5279;42.048;24.638;2023-10-09T09:11:10;6.05;;;1.80;;
10463;SDS011;5279;42.048;24.638;2023-10-09T09:13:38;6.85;;;1.92;;
10463;SDS011;5279;42.048;24.638;2023-10-09T09:16:14;7.07;;;1.73;;
10463;SDS011;5279;42.048;24.638;2023-10-09T09:21:43;3.13;;;1.60;;
10463;SDS011;5279;42.048;24.638;2023-10-09T09:24:14;3.60;;;1.40;;
10463;SDS011;5279;42.048;24.638;2023-10-09T09:26:52;4.72;;;1.88;;
10463;SDS011;5279;42.048;24.638;2023-10-09T09:29:37;8.50;;;2.15;;
10463;SDS011;5279;42.048;24.638;2023-10-09T09:32:07;4.47;;;2.13;;
10463;SDS011;5279;42.048;24.638;2023-10-09T09:34:45;6.15;;;2.22;;
10463;SDS011;5279;42.048;24.638;2023-10-09T09:37:18;3.65;;;2.05;;
10463;SDS011;5279;42.048;24.638;2023-10-09T09:39:46;7.65;;;2.50;;
10463;SDS011;5279;42.048;24.638;2023-10-09T09:42:17;5.35;;;2.50;;
10463;SDS011;5279;42.048;24.638;2023-10-09T09:44:50;3.92;;;1.60;;
10463;SDS011;5279;42.048;24.638;2023-10-09T09:47:19;3.47;;;1.65;;
10463;SDS011;5279;42.048;24.638;2023-10-09T09:49:52;5.13;;;2.50;;
10463;SDS011;5279;42.048;24.638;2023-10-09T09:52:25;3.25;;;1.70;;
10463;SDS011;5279;42.048;24.638;2023-10-09T09:54:53;2.35;;;1.40;;
10463;SDS011;5279;42.048;24.638;2023-10-09T09:57:20;1.92;;;1.48;;
10463;SDS011;5279;42.048;24.638;2023-10-09T09:59:52;2.45;;;1.55;;
10463;SDS011;5279;42.048;24.638;2023-10-09T10:02:22;5.25;;;1.70;;
10463;SDS011;5279;42.048;24.638;2023-10-09T10:04:59;4.40;;;1.35;;
10463;SDS011;5279;42.048;24.638;2023-10-09T10:07:30;3.35;;;1.30;;
10463;SDS011;5279;42.048;24.638;2023-10-09T10:13:02;4.55;;;1.77;;
10463;SDS011;5279;42.048;24.638;2023-10-09T10:18:31;1.80;;;1.33;;
10463;SDS011;5279;42.048;24.638;2023-10-09T10:21:09;4.15;;;2.05;;
10463;SDS011;5279;42.048;24.638;2023-10-09T10:23:41;6.70;;;2.05;;
10463;SDS011;5279;42.048;24.638;2023-10-09T10:26:21;7.35;;;1.65;;
10463;SDS011;5279;42.048;24.638;2023-10-09T10:31:58;4.57;;;1.65;;
10463;SDS011;5279;42.048;24.638;2023-10-09T10:37:22;4.85;;;1.23;;
10463;SDS011;5279;42.048;24.638;2023-10-09T10:40:03;2.70;;;1.30;;
10463;SDS011;5279;42.048;24.638;2023-10-09T10:42:52;1.65;;;1.48;;
10463;SDS011;5279;42.048;24.638;2023-10-09T10:45:34;4.05;;;1.30;;
10463;SDS011;5279;42.048;24.638;2023-10-09T10:48:08;3.25;;;1.45;;
10463;SDS011;5279;42.048;24.638;2023-10-09T10:50:49;2.47;;;1.30;;
10463;SDS011;5279;42.048;24.638;2023-10-09T10:53:23;5.43;;;2.00;;
10463;SDS011;5279;42.048;24.638;2023-10-09T10:55:55;3.67;;;1.50;;
10463;SDS011;5279;42.048;24.638;2023-10-09T10:58:22;2.70;;;1.40;;
10463;SDS011;5279;42.048;24.638;2023-10-09T11:01:00;5.30;;;1.92;;
10463;SDS011;5279;42.048;24.638;2023-10-09T11:03:47;2.58;;;1.35;;
10463;SDS011;5279;42.048;24.638;2023-10-09T11:06:27;2.40;;;1.33;;
10463;SDS011;5279;42.048;24.638;2023-10-09T11:09:08;2.55;;;1.20;;
10463;SDS011;5279;42.048;24.638;2023-10-09T11:11:46;2.20;;;1.00;;
10463;SDS011;5279;42.048;24.638;2023-10-09T11:14:13;4.82;;;1.70;;
10463;SDS011;5279;42.048;24.638;2023-10-09T11:16:40;4.60;;;1.30;;
10463;SDS011;5279;42.048;24.638;2023-10-09T11:19:14;1.45;;;1.10;;
10463;SDS011;5279;42.048;24.638;2023-10-09T11:21:59;2.50;;;1.60;;
10463;SDS011;5279;42.048;24.638;2023-10-09T11:38:03;2.05;;;1.45;;
10463;SDS011;5279;42.048;24.638;2023-10-09T11:40:46;2.78;;;1.45;;
10463;SDS011;5279;42.048;24.638;2023-10-09T11:43:44;3.15;;;1.60;;
10463;SDS011;5279;42.048;24.638;2023-10-09T11:46:17;2.33;;;1.42;;
10463;SDS011;5279;42.048;24.638;2023-10-09T11:49:04;3.88;;;1.58;;
10463;SDS011;5279;42.048;24.638;2023-10-09T11:51:51;6.13;;;1.45;;
10463;SDS011;5279;42.048;24.638;2023-10-09T11:54:46;6.25;;;1.75;;
10463;SDS011;5279;42.048;24.638;2023-10-09T11:57:14;3.22;;;1.83;;
10463;SDS011;5279;42.048;24.638;2023-10-09T11:59:42;3.45;;;1.60;;
10463;SDS011;5279;42.048;24.638;2023-10-09T12:02:09;4.55;;;1.65;;
10463;SDS011;5279;42.048;24.638;2023-10-09T12:04:38;5.55;;;1.70;;
10463;SDS011;5279;42.048;24.638;2023-10-09T12:07:07;1.75;;;1.40;;
10463;SDS011;5279;42.048;24.638;2023-10-09T12:09:35;2.25;;;1.67;;
10463;SDS011;5279;42.048;24.638;2023-10-09T12:12:05;3.70;;;1.80;;
10463;SDS011;5279;42.048;24.638;2023-10-09T12:14:34;2.78;;;1.73;;
10463;SDS011;5279;42.048;24.638;2023-10-09T12:17:03;5.85;;;1.80;;
10463;SDS011;5279;42.048;24.638;2023-10-09T12:19:32;3.70;;;1.63;;
10463;SDS011;5279;42.048;24.638;2023-10-09T12:21:59;5.93;;;1.80;;
10463;SDS011;5279;42.048;24.638;2023-10-09T12:24:26;5.70;;;1.80;;
10463;SDS011;5279;42.048;24.638;2023-10-09T12:26:54;2.30;;;1.52;;
10463;SDS011;5279;42.048;24.638;2023-10-09T12:29:23;7.78;;;2.00;;
10463;SDS011;5279;42.048;24.638;2023-10-09T12:31:54;4.82;;;1.65;;
10463;SDS011;5279;42.048;24.638;2023-10-09T12:34:24;3.17;;;1.40;;
10463;SDS011;5279;42.048;24.638;2023-10-09T12:36:53;5.43;;;2.45;;
10463;SDS011;5279;42.048;24.638;2023-10-09T12:39:20;1.55;;;1.42;;
10463;SDS011;5279;42.048;24.638;2023-10-09T12:41:47;3.42;;;1.55;;
10463;SDS011;5279;42.048;24.638;2023-10-09T12:44:18;3.40;;;2.13;;
10463;SDS011;5279;42.048;24.638;2023-10-09T12:46:47;1.83;;;1.48;;
10463;SDS011;5279;42.048;24.638;2023-10-09T12:49:18;7.65;;;1.55;;
10463;SDS011;5279;42.048;24.638;2023-10-09T12:51:50;3.17;;;1.50;;
10463;SDS011;5279;42.048;24.638;2023-10-09T12:54:17;3.80;;;1.95;;
10463;SDS011;5279;42.048;24.638;2023-10-09T12:56:45;4.57;;;1.60;;
10463;SDS011;5279;42.048;24.638;2023-10-09T12:59:14;2.85;;;1.40;;
10463;SDS011;5279;42.048;24.638;2023-10-09T13:01:41;1.90;;;1.42;;
10463;SDS011;5279;42.048;24.638;2023-10-09T13:04:18;7.57;;;1.58;;
10463;SDS011;5279;42.048;24.638;2023-10-09T13:06:47;4.93;;;1.50;;
10463;SDS011;5279;42.048;24.638;2023-10-09T13:09:18;4.53;;;1.20;;
10463;SDS011;5279;42.048;24.638;2023-10-09T13:11:50;2.20;;;1.30;;
10463;SDS011;5279;42.048;24.638;2023-10-09T13:14:17;2.08;;;1.33;;
10463;SDS011;5279;42.048;24.638;2023-10-09T13:16:46;1.45;;;1.33;;
10463;SDS011;5279;42.048;24.638;2023-10-09T13:19:15;2.65;;;1.30;;
10463;SDS011;5279;42.048;24.638;2023-10-09T13:21:44;2.00;;;1.48;;
10463;SDS011;5279;42.048;24.638;2023-10-09T13:24:11;3.05;;;1.20;;
10463;SDS011;5279;42.048;24.638;2023-10-09T13:26:40;4.43;;;1.30;;
10463;SDS011;5279;42.048;24.638;2023-10-09T13:29:10;1.73;;;1.33;;
10463;SDS011;5279;42.048;24.638;2023-10-09T13:31:37;5.18;;;1.73;;
10463;SDS011;5279;42.048;24.638;2023-10-09T13:34:05;1.98;;;1.80;;
10463;SDS011;5279;42.048;24.638;2023-10-09T13:36:35;8.70;;;1.75;;
10463;SDS011;5279;42.048;24.638;2023-10-09T13:39:04;2.75;;;1.35;;
10463;SDS011;5279;42.048;24.638;2023-10-09T13:41:48;2.50;;;1.52;;
10463;SDS011;5279;42.048;24.638;2023-10-09T13:44:15;4.47;;;1.50;;
10463;SDS011;5279;42.048;24.638;2023-10-09T13:46:42;3.20;;;1.52;;
10463;SDS011;5279;42.048;24.638;2023-10-09T13:49:09;4.28;;;1.50;;
10463;SDS011;5279;42.048;24.638;2023-10-09T13:51:39;4.28;;;1.70;;
10463;SDS011;5279;42.048;24.638;2023-10-09T13:54:10;3.95;;;1.70;;
10463;SDS011;5279;42.048;24.638;2023-10-09T13:56:43;2.55;;;1.30;;
10463;SDS011;5279;42.048;24.638;2023-10-09T13:59:10;3.10;;;1.55;;
10463;SDS011;5279;42.048;24.638;2023-10-09T14:01:37;3.80;;;1.55;;
10463;SDS011;5279;42.048;24.638;2023-10-09T14:04:05;1.98;;;1.20;;
10463;SDS011;5279;42.048;24.638;2023-10-09T14:06:32;5.15;;;1.30;;
10463;SDS011;5279;42.048;24.638;2023-10-09T14:09:01;3.83;;;1.70;;
10463;SDS011;5279;42.048;24.638;2023-10-09T14:11:31;2.17;;;1.20;;
10463;SDS011;5279;42.048;24.638;2023-10-09T14:14:02;4.83;;;1.33;;
10463;SDS011;5279;42.048;24.638;2023-10-09T14:16:34;2.43;;;1.30;;
10463;SDS011;5279;42.048;24.638;2023-10-09T14:19:02;4.97;;;1.80;;
10463;SDS011;5279;42.048;24.638;2023-10-09T14:21:33;4.47;;;1.90;;
10463;SDS011;5279;42.048;24.638;2023-10-09T14:24:03;3.13;;;1.30;;
10463;SDS011;5279;42.048;24.638;2023-10-09T14:26:41;6.87;;;1.70;;
10463;SDS011;5279;42.048;24.638;2023-10-09T14:29:10;2.90;;;1.30;;
10463;SDS011;5279;42.048;24.638;2023-10-09T14:31:41;3.27;;;1.53;;
10463;SDS011;5279;42.048;24.638;2023-10-09T14:34:08;3.90;;;1.77;;
10463;SDS011;5279;42.048;24.638;2023-10-09T14:36:35;5.47;;;1.50;;
10463;SDS011;5279;42.048;24.638;2023-10-09T14:39:09;3.83;;;1.53;;
10463;SDS011;5279;42.048;24.638;2023-10-09T14:41:38;1.97;;;1.30;;
10463;SDS011;5279;42.048;24.638;2023-10-09T14:44:07;2.60;;;1.33;;
10463;SDS011;5279;42.048;24.638;2023-10-09T14:46:41;3.33;;;1.60;;
10463;SDS011;5279;42.048;24.638;2023-10-09T14:49:08;2.83;;;1.30;;
10463;SDS011;5279;42.048;24.638;2023-10-09T14:51:39;4.97;;;1.43;;
10463;SDS011;5279;42.048;24.638;2023-10-09T14:54:06;6.43;;;1.80;;
10463;SDS011;5279;42.048;24.638;2023-10-09T14:56:33;3.13;;;1.50;;
10463;SDS011;5279;42.048;24.638;2023-10-09T14:59:01;3.07;;;1.40;;
10463;SDS011;5279;42.048;24.638;2023-10-09T15:01:31;2.90;;;1.50;;
10463;SDS011;5279;42.048;24.638;2023-10-09T15:03:58;1.77;;;1.30;;
10463;SDS011;5279;42.048;24.638;2023-10-09T15:06:26;7.17;;;1.70;;
10463;SDS011;5279;42.048;24.638;2023-10-09T15:08:55;5.17;;;1.50;;
10463;SDS011;5279;42.048;24.638;2023-10-09T15:11:23;2.53;;;1.40;;
10463;SDS011;5279;42.048;24.638;2023-10-09T15:13:50;5.53;;;1.50;;
10463;SDS011;5279;42.048;24.638;2023-10-09T15:16:18;10.10;;;1.57;;
10463;SDS011;5279;42.048;24.638;2023-10-09T15:18:47;2.97;;;1.67;;
10463;SDS011;5279;42.048;24.638;2023-10-09T15:21:17;3.63;;;1.40;;
10463;SDS011;5279;42.048;24.638;2023-10-09T15:23:47;5.57;;;1.63;;
10463;SDS011;5279;42.048;24.638;2023-10-09T15:26:16;8.77;;;1.90;;
10463;SDS011;5279;42.048;24.638;2023-10-09T15:28:43;5.10;;;1.20;;
10463;SDS011;5279;42.048;24.638;2023-10-09T15:31:09;5.40;;;1.80;;
10463;SDS011;5279;42.048;24.638;2023-10-09T15:33:37;1.97;;;1.50;;
10463;SDS011;5279;42.048;24.638;2023-10-09T15:36:10;1.60;;;1.40;;
10463;SDS011;5279;42.048;24.638;2023-10-09T15:38:38;4.30;;;1.67;;
10463;SDS011;5279;42.048;24.638;2023-10-09T15:41:04;5.77;;;2.40;;
10463;SDS011;5279;42.048;24.638;2023-10-09T15:43:32;4.63;;;1.50;;
10463;SDS011;5279;42.048;24.638;2023-10-09T15:45:59;4.77;;;1.83;;
10463;SDS011;5279;42.048;24.638;2023-10-09T15:48:26;2.77;;;1.70;;
10463;SDS011;5279;42.048;24.638;2023-10-09T15:50:53;4.23;;;1.63;;
10463;SDS011;5279;42.048;24.638;2023-10-09T15:53:21;2.40;;;1.60;;
10463;SDS011;5279;42.048;24.638;2023-10-09T15:55:49;5.90;;;1.47;;
10463;SDS011;5279;42.048;24.638;2023-10-09T15:58:22;5.40;;;1.93;;
10463;SDS011;5279;42.048;24.638;2023-10-09T16:00:49;5.20;;;2.20;;
10463;SDS011;5279;42.048;24.638;2023-10-09T16:03:17;2.60;;;1.63;;
10463;SDS011;5279;42.048;24.638;2023-10-09T16:05:44;1.87;;;1.77;;